sensor_id;sensor_type;location;lat;lon;timestamp;P1;durP1;ratioP1;P2;durP2;ratioP2
18879;SDS011;9572;52.378;13.404;2023-04-01T00:22:27;2.43;;;1.30;;
18879;SDS011;9572;52.378;13.404;2023-04-01T00:24:59;3.07;;;1.67;;
18879;SDS011;9572;52.378;13.404;2023-04-01T00:27:28;2.97;;;1.43;;
18879;SDS011;9572;52.378;13.404;2023-04-01T00:29:57;2.23;;;1.23;;
18879;SDS011;9572;52.378;13.404;2023-04-01T00:32:26;3.00;;;1.40;;
18879;SDS011;9572;52.378;13.404;2023-04-01T00:35:03;2.10;;;1.50;;
18879;SDS011;9572;52.378;13.404;2023-04-01T01:05:13;1.20;;;1.00;;
18879;SDS011;9572;52.378;13.404;2023-04-01T01:07:42;3.67;;;1.53;;
18879;SDS011;9572;52.378;13.404;2023-04-01T01:10:16;2.00;;;1.40;;
18879;SDS011;9572;52.378;13.404;2023-04-01T01:12:47;1.57;;;1.20;;
18879;SDS011;9572;52.378;13.404;2023-04-01T01:15:24;2.67;;;1.37;;
18879;SDS011;9572;52.378;13.404;2023-04-01T01:17:55;3.27;;;1.30;;
18879;SDS011;9572;52.378;13.404;2023-04-01T01:32:19;2.87;;;1.10;;
18879;SDS011;9572;52.378;13.404;2023-04-01T01:35:12;1.90;;;1.50;;
18879;SDS011;9572;52.378;13.404;2023-04-01T01:37:45;4.20;;;1.80;;
18879;SDS011;9572;52.378;13.404;2023-04-01T01:40:15;1.63;;;1.30;;
18879;SDS011;9572;52.378;13.404;2023-04-01T01:42:43;1.93;;;1.20;;
18879;SDS011;9572;52.378;13.404;2023-04-01T01:45:13;1.53;;;1.43;;
18879;SDS011;9572;52.378;13.404;2023-04-01T01:47:43;3.60;;;1.30;;
18879;SDS011;9572;52.378;13.404;2023-04-01T01:50:14;2.07;;;1.20;;
18879;SDS011;9572;52.378;13.404;2023-04-01T01:52:41;4.23;;;1.63;;
18879;SDS011;9572;52.378;13.404;2023-04-01T01:55:23;2.90;;;1.30;;
18879;SDS011;9572;52.378;13.404;2023-04-01T01:57:52;2.00;;;1.10;;
18879;SDS011;9572;52.378;13.404;2023-04-01T02:00:21;2.73;;;1.70;;
18879;SDS011;9572;52.378;13.404;2023-04-01T02:02:48;1.90;;;1.30;;
18879;SDS011;9572;52.378;13.404;2023-04-01T02:05:19;1.63;;;1.33;;
18879;SDS011;9572;52.378;13.404;2023-04-01T02:07:48;1.93;;;1.40;;
18879;SDS011;9572;52.378;13.404;2023-04-01T02:10:20;2.60;;;1.40;;
18879;SDS011;9572;52.378;13.404;2023-04-01T02:12:51;2.07;;;1.13;;
18879;SDS011;9572;52.378;13.404;2023-04-01T02:15:23;3.63;;;1.30;;
18879;SDS011;9572;52.378;13.404;2023-04-01T02:17:52;2.10;;;1.37;;
18879;SDS011;9572;52.378;13.404;2023-04-01T02:20:23;3.93;;;1.50;;
18879;SDS011;9572;52.378;13.404;2023-04-01T02:22:51;2.10;;;1.30;;
18879;SDS011;9572;52.378;13.404;2023-04-01T02:25:21;3.50;;;1.40;;
18879;SDS011;9572;52.378;13.404;2023-04-01T02:27:50;2.63;;;1.30;;
18879;SDS011;9572;52.378;13.404;2023-04-01T02:30:18;1.53;;;1.13;;
18879;SDS011;9572;52.378;13.404;2023-04-01T02:32:46;3.53;;;1.60;;
18879;SDS011;9572;52.378;13.404;2023-04-01T02:35:14;3.33;;;1.40;;
18879;SDS011;9572;52.378;13.404;2023-04-01T02:37:44;5.33;;;1.70;;
18879;SDS011;9572;52.378;13.404;2023-04-01T02:40:14;1.97;;;1.43;;
18879;SDS011;9572;52.378;13.404;2023-04-01T02:42:41;3.63;;;1.50;;
18879;SDS011;9572;52.378;13.404;2023-04-01T02:45:09;2.30;;;1.57;;
18879;SDS011;9572;52.378;13.404;2023-04-01T02:47:37;3.13;;;1.33;;
18879;SDS011;9572;52.378;13.404;2023-04-01T02:50:04;4.13;;;1.60;;
18879;SDS011;9572;52.378;13.404;2023-04-01T02:52:32;1.93;;;1.73;;
18879;SDS011;9572;52.378;13.404;2023-04-01T02:55:01;3.53;;;1.70;;
18879;SDS011;9572;52.378;13.404;2023-04-01T02:57:28;2.80;;;1.30;;
18879;SDS011;9572;52.378;13.404;2023-04-01T02:59:55;4.37;;;1.60;;
18879;SDS011;9572;52.378;13.404;2023-04-01T03:02:22;1.87;;;1.70;;
18879;SDS011;9572;52.378;13.404;2023-04-01T03:04:49;2.37;;;1.70;;
18879;SDS011;9572;52.378;13.404;2023-04-01T03:07:15;5.43;;;1.90;;
18879;SDS011;9572;52.378;13.404;2023-04-01T03:09:42;4.03;;;1.83;;
18879;SDS011;9572;52.378;13.404;2023-04-01T03:12:11;3.83;;;2.10;;
18879;SDS011;9572;52.378;13.404;2023-04-01T03:14:38;2.43;;;1.50;;
18879;SDS011;9572;52.378;13.404;2023-04-01T03:17:05;4.13;;;1.70;;
18879;SDS011;9572;52.378;13.404;2023-04-01T03:19:32;4.43;;;1.77;;
18879;SDS011;9572;52.378;13.404;2023-04-01T03:21:59;3.60;;;1.77;;
18879;SDS011;9572;52.378;13.404;2023-04-01T03:24:26;2.67;;;1.70;;
18879;SDS011;9572;52.378;13.404;2023-04-01T03:26:53;2.43;;;1.70;;
18879;SDS011;9572;52.378;13.404;2023-04-01T03:29:21;2.77;;;1.90;;
18879;SDS011;9572;52.378;13.404;2023-04-01T03:31:48;1.80;;;1.67;;
18879;SDS011;9572;52.378;13.404;2023-04-01T03:34:15;8.60;;;2.37;;
18879;SDS011;9572;52.378;13.404;2023-04-01T03:36:42;2.97;;;1.80;;
18879;SDS011;9572;52.378;13.404;2023-04-01T03:39:08;2.70;;;2.00;;
18879;SDS011;9572;52.378;13.404;2023-04-01T03:41:36;1.97;;;1.60;;
18879;SDS011;9572;52.378;13.404;2023-04-01T03:44:03;3.30;;;1.83;;
18879;SDS011;9572;52.378;13.404;2023-04-01T03:46:31;4.30;;;1.90;;
18879;SDS011;9572;52.378;13.404;2023-04-01T03:48:58;3.43;;;2.07;;
18879;SDS011;9572;52.378;13.404;2023-04-01T03:51:25;3.70;;;2.20;;
18879;SDS011;9572;52.378;13.404;2023-04-01T03:53:52;7.13;;;2.50;;
18879;SDS011;9572;52.378;13.404;2023-04-01T03:56:19;3.80;;;1.80;;
18879;SDS011;9572;52.378;13.404;2023-04-01T03:58:46;4.13;;;2.10;;
18879;SDS011;9572;52.378;13.404;2023-04-01T04:01:14;3.57;;;2.27;;
18879;SDS011;9572;52.378;13.404;2023-04-01T04:03:43;4.97;;;2.37;;
18879;SDS011;9572;52.378;13.404;2023-04-01T04:06:11;2.57;;;2.00;;
18879;SDS011;9572;52.378;13.404;2023-04-01T04:08:38;4.03;;;1.93;;
18879;SDS011;9572;52.378;13.404;2023-04-01T04:11:06;4.37;;;1.70;;
18879;SDS011;9572;52.378;13.404;2023-04-01T04:13:33;5.30;;;1.70;;
18879;SDS011;9572;52.378;13.404;2023-04-01T04:16:01;3.40;;;1.67;;
18879;SDS011;9572;52.378;13.404;2023-04-01T04:18:28;6.30;;;1.90;;
18879;SDS011;9572;52.378;13.404;2023-04-01T04:20:56;3.77;;;1.60;;
18879;SDS011;9572;52.378;13.404;2023-04-01T04:23:23;3.63;;;1.53;;
18879;SDS011;9572;52.378;13.404;2023-04-01T04:25:54;6.70;;;2.30;;
18879;SDS011;9572;52.378;13.404;2023-04-01T04:28:23;3.37;;;1.67;;
18879;SDS011;9572;52.378;13.404;2023-04-01T04:30:50;1.93;;;1.17;;
18879;SDS011;9572;52.378;13.404;2023-04-01T04:33:17;2.10;;;1.33;;
18879;SDS011;9572;52.378;13.404;2023-04-01T04:35:44;4.20;;;1.20;;
18879;SDS011;9572;52.378;13.404;2023-04-01T04:38:13;2.40;;;1.13;;
18879;SDS011;9572;52.378;13.404;2023-04-01T04:40:40;1.33;;;1.13;;
18879;SDS011;9572;52.378;13.404;2023-04-01T04:43:09;3.80;;;1.43;;
18879;SDS011;9572;52.378;13.404;2023-04-01T04:45:37;3.63;;;1.50;;
18879;SDS011;9572;52.378;13.404;2023-04-01T04:48:04;3.97;;;1.30;;
18879;SDS011;9572;52.378;13.404;2023-04-01T04:50:32;4.17;;;1.30;;
18879;SDS011;9572;52.378;13.404;2023-04-01T04:52:59;3.30;;;1.20;;
18879;SDS011;9572;52.378;13.404;2023-04-01T04:55:28;2.37;;;1.50;;
18879;SDS011;9572;52.378;13.404;2023-04-01T04:57:54;4.57;;;1.80;;
18879;SDS011;9572;52.378;13.404;2023-04-01T05:00:21;3.03;;;1.13;;
18879;SDS011;9572;52.378;13.404;2023-04-01T05:02:48;4.73;;;1.50;;
18879;SDS011;9572;52.378;13.404;2023-04-01T05:05:15;3.03;;;1.47;;
18879;SDS011;9572;52.378;13.404;2023-04-01T05:07:42;6.00;;;1.30;;
18879;SDS011;9572;52.378;13.404;2023-04-01T05:10:09;4.50;;;1.57;;
18879;SDS011;9572;52.378;13.404;2023-04-01T05:12:38;4.13;;;1.80;;
18879;SDS011;9572;52.378;13.404;2023-04-01T05:15:05;4.57;;;1.87;;
18879;SDS011;9572;52.378;13.404;2023-04-01T05:17:33;4.53;;;1.93;;
18879;SDS011;9572;52.378;13.404;2023-04-01T05:20:00;3.47;;;1.40;;
18879;SDS011;9572;52.378;13.404;2023-04-01T05:22:28;3.63;;;1.50;;
18879;SDS011;9572;52.378;13.404;2023-04-01T05:24:55;5.43;;;1.80;;
18879;SDS011;9572;52.378;13.404;2023-04-01T05:27:22;4.17;;;1.60;;
18879;SDS011;9572;52.378;13.404;2023-04-01T05:29:50;3.63;;;1.90;;
18879;SDS011;9572;52.378;13.404;2023-04-01T05:32:17;7.43;;;2.60;;
18879;SDS011;9572;52.378;13.404;2023-04-01T05:34:44;7.00;;;2.73;;
18879;SDS011;9572;52.378;13.404;2023-04-01T05:37:11;8.80;;;2.20;;
18879;SDS011;9572;52.378;13.404;2023-04-01T05:39:38;7.13;;;2.23;;
18879;SDS011;9572;52.378;13.404;2023-04-01T05:42:06;8.07;;;2.73;;
18879;SDS011;9572;52.378;13.404;2023-04-01T05:44:33;5.70;;;2.30;;
18879;SDS011;9572;52.378;13.404;2023-04-01T05:47:02;3.77;;;2.13;;
18879;SDS011;9572;52.378;13.404;2023-04-01T05:49:29;3.53;;;2.30;;
18879;SDS011;9572;52.378;13.404;2023-04-01T05:51:56;7.47;;;2.20;;
18879;SDS011;9572;52.378;13.404;2023-04-01T05:54:23;6.23;;;2.23;;
18879;SDS011;9572;52.378;13.404;2023-04-01T05:56:50;9.03;;;2.43;;
18879;SDS011;9572;52.378;13.404;2023-04-01T05:59:17;4.30;;;2.23;;
18879;SDS011;9572;52.378;13.404;2023-04-01T06:01:44;4.53;;;2.80;;
18879;SDS011;9572;52.378;13.404;2023-04-01T06:04:14;6.80;;;2.63;;
18879;SDS011;9572;52.378;13.404;2023-04-01T06:06:43;7.43;;;2.20;;
18879;SDS011;9572;52.378;13.404;2023-04-01T06:09:12;6.97;;;2.70;;
18879;SDS011;9572;52.378;13.404;2023-04-01T06:11:44;3.78;;;2.22;;
18879;SDS011;9572;52.378;13.404;2023-04-01T06:14:24;7.95;;;2.80;;
18879;SDS011;9572;52.378;13.404;2023-04-01T06:17:04;7.77;;;3.17;;
18879;SDS011;9572;52.378;13.404;2023-04-01T06:19:45;8.77;;;3.60;;
18879;SDS011;9572;52.378;13.404;2023-04-01T06:22:35;10.23;;;3.57;;
18879;SDS011;9572;52.378;13.404;2023-04-01T06:25:29;7.10;;;3.07;;
18879;SDS011;9572;52.378;13.404;2023-04-01T06:31:33;6.60;;;2.37;;
18879;SDS011;9572;52.378;13.404;2023-04-01T06:34:22;3.53;;;2.17;;
18879;SDS011;9572;52.378;13.404;2023-04-01T06:37:09;4.90;;;2.17;;
18879;SDS011;9572;52.378;13.404;2023-04-01T06:39:46;6.70;;;2.40;;
18879;SDS011;9572;52.378;13.404;2023-04-01T06:42:35;8.53;;;2.03;;
18879;SDS011;9572;52.378;13.404;2023-04-01T06:45:17;5.93;;;1.70;;
18879;SDS011;9572;52.378;13.404;2023-04-01T06:47:58;4.37;;;2.00;;
18879;SDS011;9572;52.378;13.404;2023-04-01T06:50:36;6.22;;;2.00;;
18879;SDS011;9572;52.378;13.404;2023-04-01T06:53:12;4.90;;;2.33;;
18879;SDS011;9572;52.378;13.404;2023-04-01T06:55:46;30.85;;;18.40;;
18879;SDS011;9572;52.378;13.404;2023-04-01T06:58:18;8.50;;;3.42;;
18879;SDS011;9572;52.378;13.404;2023-04-01T07:00:48;6.05;;;2.28;;
18879;SDS011;9572;52.378;13.404;2023-04-01T07:03:19;5.82;;;1.98;;
18879;SDS011;9572;52.378;13.404;2023-04-01T07:05:49;4.47;;;2.53;;
18879;SDS011;9572;52.378;13.404;2023-04-01T07:08:20;5.43;;;2.17;;
18879;SDS011;9572;52.378;13.404;2023-04-01T07:10:50;4.28;;;1.52;;
18879;SDS011;9572;52.378;13.404;2023-04-01T07:13:23;5.18;;;1.58;;
18879;SDS011;9572;52.378;13.404;2023-04-01T07:15:57;5.25;;;1.85;;
18879;SDS011;9572;52.378;13.404;2023-04-01T07:18:30;3.92;;;1.60;;
18879;SDS011;9572;52.378;13.404;2023-04-01T07:21:03;4.97;;;1.75;;
18879;SDS011;9572;52.378;13.404;2023-04-01T07:23:38;5.55;;;1.65;;
18879;SDS011;9572;52.378;13.404;2023-04-01T07:26:13;4.25;;;1.55;;
18879;SDS011;9572;52.378;13.404;2023-04-01T07:28:43;4.15;;;1.58;;
18879;SDS011;9572;52.378;13.404;2023-04-01T07:31:13;5.80;;;1.80;;
18879;SDS011;9572;52.378;13.404;2023-04-01T07:33:49;3.30;;;1.25;;
18879;SDS011;9572;52.378;13.404;2023-04-01T07:36:22;5.93;;;1.50;;
18879;SDS011;9572;52.378;13.404;2023-04-01T07:39:01;7.50;;;1.80;;
18879;SDS011;9572;52.378;13.404;2023-04-01T07:41:37;5.65;;;1.13;;
18879;SDS011;9572;52.378;13.404;2023-04-01T07:44:13;2.92;;;1.17;;
18879;SDS011;9572;52.378;13.404;2023-04-01T07:49:50;4.32;;;1.42;;
18879;SDS011;9572;52.378;13.404;2023-04-01T07:52:27;5.38;;;1.77;;
18879;SDS011;9572;52.378;13.404;2023-04-01T07:55:04;5.50;;;1.40;;
18879;SDS011;9572;52.378;13.404;2023-04-01T07:57:38;2.05;;;1.20;;
18879;SDS011;9572;52.378;13.404;2023-04-01T08:00:15;3.50;;;1.08;;
18879;SDS011;9572;52.378;13.404;2023-04-01T08:02:51;5.80;;;1.20;;
18879;SDS011;9572;52.378;13.404;2023-04-01T08:05:30;2.95;;;1.40;;
18879;SDS011;9572;52.378;13.404;2023-04-01T08:08:03;2.92;;;1.17;;
18879;SDS011;9572;52.378;13.404;2023-04-01T08:10:39;4.50;;;1.20;;
18879;SDS011;9572;52.378;13.404;2023-04-01T08:13:14;5.07;;;1.35;;
18879;SDS011;9572;52.378;13.404;2023-04-01T08:15:53;9.27;;;1.55;;
18879;SDS011;9572;52.378;13.404;2023-04-01T08:18:27;4.85;;;1.58;;
18879;SDS011;9572;52.378;13.404;2023-04-01T08:21:01;3.95;;;1.20;;
18879;SDS011;9572;52.378;13.404;2023-04-01T08:23:30;5.05;;;1.20;;
18879;SDS011;9572;52.378;13.404;2023-04-01T08:26:02;4.82;;;1.75;;
18879;SDS011;9572;52.378;13.404;2023-04-01T08:28:33;4.95;;;1.50;;
18879;SDS011;9572;52.378;13.404;2023-04-01T08:31:04;6.40;;;1.92;;
18879;SDS011;9572;52.378;13.404;2023-04-01T08:33:35;5.75;;;1.50;;
18879;SDS011;9572;52.378;13.404;2023-04-01T08:36:05;5.85;;;1.75;;
18879;SDS011;9572;52.378;13.404;2023-04-01T08:38:36;4.72;;;1.42;;
18879;SDS011;9572;52.378;13.404;2023-04-01T08:41:11;5.00;;;1.45;;
18879;SDS011;9572;52.378;13.404;2023-04-01T08:44:04;7.82;;;1.48;;
18879;SDS011;9572;52.378;13.404;2023-04-01T08:50:16;2.95;;;1.10;;
18879;SDS011;9572;52.378;13.404;2023-04-01T08:53:05;2.75;;;1.15;;
18879;SDS011;9572;52.378;13.404;2023-04-01T08:55:40;6.25;;;1.85;;
18879;SDS011;9572;52.378;13.404;2023-04-01T08:58:35;7.07;;;1.40;;
18879;SDS011;9572;52.378;13.404;2023-04-01T09:01:19;3.70;;;1.45;;
18879;SDS011;9572;52.378;13.404;2023-04-01T09:06:49;3.20;;;1.17;;
18879;SDS011;9572;52.378;13.404;2023-04-01T09:09:42;3.20;;;0.90;;
18879;SDS011;9572;52.378;13.404;2023-04-01T09:12:39;3.47;;;1.20;;
18879;SDS011;9572;52.378;13.404;2023-04-01T09:18:30;1.10;;;0.70;;
18879;SDS011;9572;52.378;13.404;2023-04-01T09:21:21;4.63;;;1.20;;
18879;SDS011;9572;52.378;13.404;2023-04-01T09:24:14;1.63;;;0.80;;
18879;SDS011;9572;52.378;13.404;2023-04-01T09:27:02;2.47;;;0.65;;
18879;SDS011;9572;52.378;13.404;2023-04-01T09:29:37;2.10;;;0.90;;
18879;SDS011;9572;52.378;13.404;2023-04-01T09:35:18;3.45;;;1.40;;
18879;SDS011;9572;52.378;13.404;2023-04-01T09:37:52;4.47;;;3.33;;
18879;SDS011;9572;52.378;13.404;2023-04-01T09:40:31;5.78;;;4.35;;
18879;SDS011;9572;52.378;13.404;2023-04-01T09:43:16;6.72;;;5.15;;
18879;SDS011;9572;52.378;13.404;2023-04-01T09:46:09;7.80;;;5.57;;
18879;SDS011;9572;52.378;13.404;2023-04-01T09:51:43;8.27;;;5.73;;
18879;SDS011;9572;52.378;13.404;2023-04-01T09:54:26;6.93;;;4.73;;
18879;SDS011;9572;52.378;13.404;2023-04-01T09:57:12;7.90;;;5.87;;
18879;SDS011;9572;52.378;13.404;2023-04-01T10:12:30;7.67;;;5.33;;
18879;SDS011;9572;52.378;13.404;2023-04-01T10:15:28;9.37;;;5.50;;
18879;SDS011;9572;52.378;13.404;2023-04-01T10:18:23;7.03;;;5.30;;
18879;SDS011;9572;52.378;13.404;2023-04-01T10:24:22;7.83;;;5.57;;
18879;SDS011;9572;52.378;13.404;2023-04-01T10:27:16;6.13;;;5.23;;
18879;SDS011;9572;52.378;13.404;2023-04-01T10:30:06;8.83;;;5.83;;
18879;SDS011;9572;52.378;13.404;2023-04-01T10:33:10;7.00;;;5.30;;
18879;SDS011;9572;52.378;13.404;2023-04-01T10:51:23;10.63;;;6.30;;
18879;SDS011;9572;52.378;13.404;2023-04-01T10:54:08;10.13;;;6.73;;
18879;SDS011;9572;52.378;13.404;2023-04-01T10:56:54;9.13;;;7.07;;
18879;SDS011;9572;52.378;13.404;2023-04-01T11:05:38;10.80;;;7.60;;
18879;SDS011;9572;52.378;13.404;2023-04-01T11:14:47;10.37;;;8.27;;
18879;SDS011;9572;52.378;13.404;2023-04-01T11:17:37;10.17;;;7.57;;
18879;SDS011;9572;52.378;13.404;2023-04-01T11:23:17;13.37;;;7.03;;
18879;SDS011;9572;52.378;13.404;2023-04-01T11:26:08;15.37;;;7.37;;
18879;SDS011;9572;52.378;13.404;2023-04-01T11:28:47;8.27;;;7.17;;
18879;SDS011;9572;52.378;13.404;2023-04-01T11:31:35;8.73;;;7.17;;
18879;SDS011;9572;52.378;13.404;2023-04-01T11:34:13;67.53;;;37.17;;
18879;SDS011;9572;52.378;13.404;2023-04-01T11:36:55;8.50;;;7.10;;
18879;SDS011;9572;52.378;13.404;2023-04-01T11:39:31;8.07;;;7.07;;
18879;SDS011;9572;52.378;13.404;2023-04-01T11:42:07;8.20;;;6.47;;
18879;SDS011;9572;52.378;13.404;2023-04-01T11:44:46;9.50;;;7.40;;
18879;SDS011;9572;52.378;13.404;2023-04-01T11:47:36;7.20;;;6.10;;
18879;SDS011;9572;52.378;13.404;2023-04-01T11:50:17;8.40;;;6.67;;
18879;SDS011;9572;52.378;13.404;2023-04-01T11:52:54;8.40;;;6.20;;
18879;SDS011;9572;52.378;13.404;2023-04-01T11:55:32;8.10;;;5.80;;
18879;SDS011;9572;52.378;13.404;2023-04-01T11:58:13;8.10;;;6.50;;
18879;SDS011;9572;52.378;13.404;2023-04-01T12:01:05;5.77;;;5.17;;
18879;SDS011;9572;52.378;13.404;2023-04-01T12:03:54;6.53;;;5.00;;
18879;SDS011;9572;52.378;13.404;2023-04-01T12:06:36;5.17;;;4.60;;
18879;SDS011;9572;52.378;13.404;2023-04-01T12:09:12;7.53;;;5.20;;
18879;SDS011;9572;52.378;13.404;2023-04-01T12:11:45;7.20;;;5.80;;
18879;SDS011;9572;52.378;13.404;2023-04-01T12:14:19;5.83;;;4.70;;
18879;SDS011;9572;52.378;13.404;2023-04-01T12:16:55;5.37;;;4.60;;
18879;SDS011;9572;52.378;13.404;2023-04-01T12:19:32;4.73;;;4.33;;
18879;SDS011;9572;52.378;13.404;2023-04-01T12:22:19;5.83;;;4.33;;
18879;SDS011;9572;52.378;13.404;2023-04-01T12:24:56;5.20;;;4.23;;
18879;SDS011;9572;52.378;13.404;2023-04-01T12:27:45;5.23;;;4.00;;
18879;SDS011;9572;52.378;13.404;2023-04-01T12:30:26;5.10;;;4.03;;
18879;SDS011;9572;52.378;13.404;2023-04-01T12:33:10;4.13;;;3.60;;
18879;SDS011;9572;52.378;13.404;2023-04-01T12:35:55;3.80;;;3.40;;
18879;SDS011;9572;52.378;13.404;2023-04-01T12:38:36;4.00;;;3.60;;
18879;SDS011;9572;52.378;13.404;2023-04-01T12:41:13;4.37;;;3.80;;
18879;SDS011;9572;52.378;13.404;2023-04-01T12:43:56;4.30;;;3.47;;
18879;SDS011;9572;52.378;13.404;2023-04-01T12:46:39;3.70;;;3.40;;
18879;SDS011;9572;52.378;13.404;2023-04-01T12:49:32;4.77;;;3.87;;
18879;SDS011;9572;52.378;13.404;2023-04-01T12:52:11;4.17;;;3.20;;
18879;SDS011;9572;52.378;13.404;2023-04-01T12:54:48;3.70;;;3.40;;
18879;SDS011;9572;52.378;13.404;2023-04-01T12:57:32;4.43;;;3.73;;
18879;SDS011;9572;52.378;13.404;2023-04-01T13:00:21;4.30;;;3.77;;
18879;SDS011;9572;52.378;13.404;2023-04-01T13:02:57;4.33;;;3.53;;
18879;SDS011;9572;52.378;13.404;2023-04-01T13:05:49;5.17;;;3.83;;
18879;SDS011;9572;52.378;13.404;2023-04-01T13:08:42;4.77;;;3.97;;
18879;SDS011;9572;52.378;13.404;2023-04-01T13:11:18;4.00;;;3.57;;
18879;SDS011;9572;52.378;13.404;2023-04-01T13:14:04;3.73;;;3.07;;
18879;SDS011;9572;52.378;13.404;2023-04-01T13:16:58;4.47;;;3.13;;
18879;SDS011;9572;52.378;13.404;2023-04-01T13:19:37;5.17;;;3.17;;
18879;SDS011;9572;52.378;13.404;2023-04-01T13:22:14;4.67;;;3.33;;
18879;SDS011;9572;52.378;13.404;2023-04-01T13:24:49;3.87;;;3.57;;
18879;SDS011;9572;52.378;13.404;2023-04-01T13:27:20;3.67;;;3.23;;
18879;SDS011;9572;52.378;13.404;2023-04-01T13:29:57;4.00;;;3.40;;
18879;SDS011;9572;52.378;13.404;2023-04-01T13:32:30;4.30;;;3.27;;
18879;SDS011;9572;52.378;13.404;2023-04-01T13:35:06;3.67;;;3.37;;
18879;SDS011;9572;52.378;13.404;2023-04-01T13:37:49;5.00;;;3.83;;
18879;SDS011;9572;52.378;13.404;2023-04-01T13:40:26;4.17;;;3.37;;
18879;SDS011;9572;52.378;13.404;2023-04-01T13:43:05;3.57;;;2.87;;
18879;SDS011;9572;52.378;13.404;2023-04-01T13:45:42;3.37;;;3.07;;
18879;SDS011;9572;52.378;13.404;2023-04-01T13:48:26;4.00;;;3.07;;
18879;SDS011;9572;52.378;13.404;2023-04-01T13:54:07;3.40;;;3.10;;
18879;SDS011;9572;52.378;13.404;2023-04-01T13:56:57;3.47;;;3.17;;
18879;SDS011;9572;52.378;13.404;2023-04-01T13:59:40;3.80;;;3.13;;
18879;SDS011;9572;52.378;13.404;2023-04-01T14:02:33;8.97;;;3.57;;
18879;SDS011;9572;52.378;13.404;2023-04-01T14:05:19;5.13;;;3.50;;
18879;SDS011;9572;52.378;13.404;2023-04-01T14:08:01;4.17;;;3.77;;
18879;SDS011;9572;52.378;13.404;2023-04-01T14:10:39;6.67;;;5.13;;
18879;SDS011;9572;52.378;13.404;2023-04-01T14:13:12;8.40;;;6.57;;
18879;SDS011;9572;52.378;13.404;2023-04-01T14:15:50;7.97;;;5.70;;
18879;SDS011;9572;52.378;13.404;2023-04-01T14:18:37;8.40;;;5.83;;
18879;SDS011;9572;52.378;13.404;2023-04-01T14:30:30;12.23;;;7.20;;
18879;SDS011;9572;52.378;13.404;2023-04-01T14:33:12;8.83;;;6.77;;
18879;SDS011;9572;52.378;13.404;2023-04-01T14:35:51;9.90;;;7.03;;
18879;SDS011;9572;52.378;13.404;2023-04-01T14:38:34;8.10;;;6.67;;
18879;SDS011;9572;52.378;13.404;2023-04-01T14:41:21;9.73;;;7.37;;
18879;SDS011;9572;52.378;13.404;2023-04-01T14:44:13;9.67;;;7.00;;
18879;SDS011;9572;52.378;13.404;2023-04-01T14:50:11;9.43;;;7.10;;
18879;SDS011;9572;52.378;13.404;2023-04-01T14:52:41;8.43;;;6.77;;
18879;SDS011;9572;52.378;13.404;2023-04-01T14:55:17;9.30;;;6.33;;
18879;SDS011;9572;52.378;13.404;2023-04-01T14:57:57;7.47;;;6.20;;
18879;SDS011;9572;52.378;13.404;2023-04-01T15:00:27;9.43;;;6.47;;
18879;SDS011;9572;52.378;13.404;2023-04-01T15:03:08;7.67;;;6.50;;
18879;SDS011;9572;52.378;13.404;2023-04-01T15:05:44;9.37;;;7.10;;
18879;SDS011;9572;52.378;13.404;2023-04-01T15:08:20;9.13;;;6.37;;
18879;SDS011;9572;52.378;13.404;2023-04-01T15:10:53;7.97;;;6.27;;
18879;SDS011;9572;52.378;13.404;2023-04-01T15:13:47;9.03;;;6.27;;
18879;SDS011;9572;52.378;13.404;2023-04-01T15:16:41;6.70;;;5.83;;
18879;SDS011;9572;52.378;13.404;2023-04-01T15:19:17;6.63;;;5.67;;
18879;SDS011;9572;52.378;13.404;2023-04-01T15:22:00;9.70;;;5.67;;
18879;SDS011;9572;52.378;13.404;2023-04-01T15:24:58;5.93;;;5.17;;
18879;SDS011;9572;52.378;13.404;2023-04-01T15:27:40;6.43;;;5.33;;
18879;SDS011;9572;52.378;13.404;2023-04-01T15:30:17;5.27;;;4.70;;
18879;SDS011;9572;52.378;13.404;2023-04-01T15:32:56;6.57;;;4.50;;
18879;SDS011;9572;52.378;13.404;2023-04-01T15:35:37;7.40;;;5.00;;
18879;SDS011;9572;52.378;13.404;2023-04-01T15:38:11;5.40;;;4.60;;
18879;SDS011;9572;52.378;13.404;2023-04-01T15:40:53;6.70;;;5.40;;
18879;SDS011;9572;52.378;13.404;2023-04-01T15:43:28;6.77;;;5.57;;
18879;SDS011;9572;52.378;13.404;2023-04-01T15:46:09;7.47;;;5.47;;
18879;SDS011;9572;52.378;13.404;2023-04-01T15:48:52;7.27;;;4.80;;
18879;SDS011;9572;52.378;13.404;2023-04-01T15:54:25;6.07;;;4.37;;
18879;SDS011;9572;52.378;13.404;2023-04-01T16:00:06;6.13;;;4.80;;
18879;SDS011;9572;52.378;13.404;2023-04-01T16:02:52;7.93;;;5.60;;
18879;SDS011;9572;52.378;13.404;2023-04-01T16:05:40;8.07;;;5.97;;
18879;SDS011;9572;52.378;13.404;2023-04-01T16:08:37;6.53;;;5.40;;
18879;SDS011;9572;52.378;13.404;2023-04-01T16:11:22;8.77;;;6.03;;
18879;SDS011;9572;52.378;13.404;2023-04-01T16:13:55;7.70;;;5.40;;
18879;SDS011;9572;52.378;13.404;2023-04-01T16:16:36;7.20;;;4.90;;
18879;SDS011;9572;52.378;13.404;2023-04-01T16:22:07;6.60;;;4.73;;
18879;SDS011;9572;52.378;13.404;2023-04-01T16:24:40;7.80;;;4.13;;
18879;SDS011;9572;52.378;13.404;2023-04-01T16:27:12;5.33;;;4.00;;
18879;SDS011;9572;52.378;13.404;2023-04-01T16:29:45;9.10;;;4.40;;
18879;SDS011;9572;52.378;13.404;2023-04-01T16:32:17;4.50;;;3.47;;
18879;SDS011;9572;52.378;13.404;2023-04-01T16:35:04;4.33;;;3.47;;
18879;SDS011;9572;52.378;13.404;2023-04-01T16:37:50;7.07;;;3.90;;
18879;SDS011;9572;52.378;13.404;2023-04-01T16:40:23;7.40;;;4.07;;
18879;SDS011;9572;52.378;13.404;2023-04-01T16:43:05;8.13;;;5.47;;
18879;SDS011;9572;52.378;13.404;2023-04-01T16:45:36;6.77;;;4.93;;
18879;SDS011;9572;52.378;13.404;2023-04-01T16:48:10;9.80;;;6.03;;
18879;SDS011;9572;52.378;13.404;2023-04-01T16:50:42;8.53;;;5.83;;
18879;SDS011;9572;52.378;13.404;2023-04-01T16:53:21;8.90;;;7.10;;
18879;SDS011;9572;52.378;13.404;2023-04-01T16:56:02;10.63;;;7.40;;
18879;SDS011;9572;52.378;13.404;2023-04-01T16:58:36;8.93;;;7.20;;
18879;SDS011;9572;52.378;13.404;2023-04-01T17:01:05;10.80;;;7.53;;
18879;SDS011;9572;52.378;13.404;2023-04-01T17:03:38;12.20;;;8.47;;
18879;SDS011;9572;52.378;13.404;2023-04-01T17:06:13;14.30;;;8.23;;
18879;SDS011;9572;52.378;13.404;2023-04-01T17:09:05;11.33;;;8.83;;
18879;SDS011;9572;52.378;13.404;2023-04-01T17:11:47;10.57;;;8.70;;
18879;SDS011;9572;52.378;13.404;2023-04-01T17:14:20;10.47;;;8.00;;
18879;SDS011;9572;52.378;13.404;2023-04-01T17:17:01;10.37;;;6.73;;
18879;SDS011;9572;52.378;13.404;2023-04-01T17:19:42;8.10;;;6.60;;
18879;SDS011;9572;52.378;13.404;2023-04-01T17:22:20;10.80;;;6.33;;
18879;SDS011;9572;52.378;13.404;2023-04-01T17:25:00;7.70;;;6.10;;
18879;SDS011;9572;52.378;13.404;2023-04-01T17:27:37;11.47;;;5.93;;
18879;SDS011;9572;52.378;13.404;2023-04-01T17:30:11;11.87;;;7.00;;
18879;SDS011;9572;52.378;13.404;2023-04-01T17:32:48;7.90;;;6.30;;
18879;SDS011;9572;52.378;13.404;2023-04-01T17:35:25;7.17;;;6.27;;
18879;SDS011;9572;52.378;13.404;2023-04-01T17:37:57;9.70;;;6.87;;
18879;SDS011;9572;52.378;13.404;2023-04-01T17:40:39;7.93;;;6.53;;
18879;SDS011;9572;52.378;13.404;2023-04-01T17:43:16;12.33;;;7.07;;
18879;SDS011;9572;52.378;13.404;2023-04-01T17:45:49;10.60;;;7.20;;
18879;SDS011;9572;52.378;13.404;2023-04-01T17:48:23;9.60;;;6.67;;
18879;SDS011;9572;52.378;13.404;2023-04-01T17:51:04;8.80;;;6.73;;
18879;SDS011;9572;52.378;13.404;2023-04-01T17:53:41;10.13;;;7.37;;
18879;SDS011;9572;52.378;13.404;2023-04-01T17:56:23;8.07;;;6.83;;
18879;SDS011;9572;52.378;13.404;2023-04-01T17:58:59;9.87;;;6.83;;
18879;SDS011;9572;52.378;13.404;2023-04-01T18:01:36;8.50;;;6.30;;
18879;SDS011;9572;52.378;13.404;2023-04-01T18:04:20;8.60;;;6.33;;
18879;SDS011;9572;52.378;13.404;2023-04-01T18:10:03;7.30;;;5.87;;
18879;SDS011;9572;52.378;13.404;2023-04-01T18:12:42;6.97;;;5.70;;
18879;SDS011;9572;52.378;13.404;2023-04-01T18:15:27;7.47;;;5.70;;